Time;durP1;ratioP1;P1;durP2;ratioP2;P2;SDS_P1;SDS_P2;PMS_P1;PMS_P2;Temp;Humidity;BMP_temperature;BMP_pressure;BME280_temperature;BME280_humidity;BME280_pressure;Samples;Min_cycle;Max_cycle;Signal;HPM_P1;HPM_P2
2022/04/21 00:02:17;;;;;;;12.68;6.82;;;;;;;2.51;57.33;93206.34;5069845;28;20055;-49
2022/04/21 00:04:44;;;;;;;16.70;7.32;;;;;;;2.06;59.52;93222.00;5067810;28;20048;-51
2022/04/21 00:07:11;;;;;;;13.45;6.70;;;;;;;2.22;58.88;93211.63;5068729;28;20044;-48
2022/04/21 00:09:37;;;;;;;13.07;7.20;;;;;;;2.33;58.65;93204.31;5065762;28;20045;-48
2022/04/21 00:12:05;;;;;;;13.40;7.20;;;;;;;2.31;58.35;93212.06;5053599;28;20049;-49
2022/04/21 00:14:31;;;;;;;13.52;7.40;;;;;;;2.25;58.88;93210.09;5052996;28;20379;-49
2022/04/21 00:16:58;;;;;;;13.15;7.72;;;;;;;2.23;58.27;93205.06;5053437;28;20413;-46
2022/04/21 00:19:25;;;;;;;12.70;7.47;;;;;;;2.30;58.25;93207.81;5052496;28;20060;-46
2022/04/21 00:24:38;;;;;;;13.27;7.47;;;;;;;2.13;59.01;93203.88;5052705;28;20051;-44
2022/04/21 00:27:05;;;;;;;12.73;7.50;;;;;;;2.06;59.53;93209.25;5052896;28;20061;-49
2022/04/21 00:29:32;;;;;;;12.82;7.10;;;;;;;1.82;60.22;93204.47;5067273;28;20044;-50
2022/04/21 00:31:59;;;;;;;11.75;6.80;;;;;;;1.85;60.42;93204.50;5072744;28;20059;-48
2022/04/21 00:34:26;;;;;;;13.52;7.25;;;;;;;1.77;60.25;93206.38;5071349;28;20063;-52
2022/04/21 00:36:53;;;;;;;13.13;6.90;;;;;;;1.79;59.97;93200.56;5072964;28;20045;-46
2022/04/21 00:39:19;;;;;;;11.02;6.30;;;;;;;1.56;60.81;93190.00;5055075;28;20051;-50
2022/04/21 00:41:46;;;;;;;13.88;7.50;;;;;;;1.42;61.22;93189.91;5072217;28;20046;-46
2022/04/21 00:44:13;;;;;;;14.43;7.65;;;;;;;1.31;61.63;93196.00;5072931;28;20053;-52
2022/04/21 00:46:40;;;;;;;15.55;7.93;;;;;;;1.32;61.39;93196.78;5072189;28;20048;-49
2022/04/21 00:49:08;;;;;;;13.40;7.67;;;;;;;1.39;61.55;93186.03;5071516;28;20053;-46
2022/04/21 00:51:35;;;;;;;14.80;7.50;;;;;;;1.44;61.59;93185.66;5072220;28;20051;-46
2022/04/21 00:54:03;;;;;;;14.18;7.80;;;;;;;1.43;61.68;93186.81;5072498;28;20044;-45
2022/04/21 00:56:29;;;;;;;14.75;7.80;;;;;;;1.50;61.21;93186.09;5070817;28;20044;-47
2022/04/21 00:58:57;;;;;;;14.02;7.88;;;;;;;1.55;60.70;93194.63;5072386;28;20049;-45
2022/04/21 01:04:10;;;;;;;14.15;7.97;;;;;;;1.54;61.06;93201.19;5071376;28;20055;-54
2022/04/21 01:06:37;;;;;;;14.13;7.68;;;;;;;1.47;61.63;93189.53;5067437;28;20087;-48
2022/04/21 01:09:03;;;;;;;14.52;7.68;;;;;;;1.43;61.65;93184.13;5063875;28;20050;-45
2022/04/21 01:11:30;;;;;;;15.95;8.10;;;;;;;1.42;61.68;93185.25;5051822;28;20134;-46
2022/04/21 01:13:57;;;;;;;15.27;7.93;;;;;;;1.48;61.30;93186.47;5052438;28;20049;-47
2022/04/21 01:16:25;;;;;;;16.20;8.00;;;;;;;1.44;61.55;93182.94;5050421;28;20048;-50
2022/04/21 01:18:52;;;;;;;15.23;8.10;;;;;;;1.48;61.53;93183.00;5051766;28;20072;-49
2022/04/21 01:21:19;;;;;;;13.30;7.63;;;;;;;1.42;61.50;93174.44;5052072;28;20041;-49
2022/04/21 01:23:46;;;;;;;16.38;7.70;;;;;;;1.28;61.97;93180.53;5050522;28;20052;-49
2022/04/21 01:26:15;;;;;;;13.83;7.40;;;;;;;1.24;61.67;93177.00;5052198;28;20044;-45
2022/04/21 01:28:45;;;;;;;13.57;7.50;;;;;;;1.29;61.67;93171.28;5070181;28;20043;-46
2022/04/21 01:31:12;;;;;;;14.10;7.72;;;;;;;1.20;61.91;93170.81;5070729;28;20048;-52
2022/04/21 01:33:38;;;;;;;14.55;7.53;;;;;;;1.22;61.78;93163.09;5070105;28;20093;-48
2022/04/21 01:36:05;;;;;;;13.60;7.50;;;;;;;1.18;61.93;93167.69;5071952;28;20064;-51
2022/04/21 01:41:17;;;;;;;15.20;7.20;;;;;;;1.05;62.56;93175.31;5071865;28;20044;-53
2022/04/21 01:43:44;;;;;;;13.80;7.53;;;;;;;0.93;62.45;93173.69;5071298;28;20052;-50
2022/04/21 01:46:11;;;;;;;14.88;7.45;;;;;;;0.98;62.80;93170.63;5070611;28;20081;-46
2022/04/21 01:48:38;;;;;;;13.57;7.53;;;;;;;0.98;62.33;93165.22;5071134;28;20044;-45
2022/04/21 01:51:04;;;;;;;15.37;7.57;;;;;;;0.96;62.55;93166.75;5071664;28;20037;-47
2022/04/21 01:53:31;;;;;;;13.15;7.32;;;;;;;0.98;62.35;93167.91;5069809;28;20041;-51
2022/04/21 01:55:58;;;;;;;15.35;7.38;;;;;;;1.00;62.49;93171.03;5071443;28;20051;-48
2022/04/21 01:58:25;;;;;;;12.70;7.05;;;;;;;0.97;62.47;93173.72;5069737;28;20173;-46
2022/04/21 02:00:52;;;;;;;13.30;7.22;;;;;;;0.98;62.51;93169.84;5071421;28;20490;-47
2022/04/21 02:03:19;;;;;;;13.67;7.50;;;;;;;0.99;62.20;93164.09;5070083;28;20045;-47
2022/04/21 02:05:46;;;;;;;14.00;7.35;;;;;;;0.92;62.53;93163.22;5070453;28;20051;-48
2022/04/21 02:08:13;;;;;;;13.48;7.50;;;;;;;0.87;62.80;93160.91;5067318;28;20508;-52
2022/04/21 02:10:39;;;;;;;13.23;7.70;;;;;;;0.83;63.08;93154.69;5054788;28;20037;-52
2022/04/21 02:13:06;;;;;;;13.55;7.88;;;;;;;0.88;62.88;93146.22;5051163;28;20067;-47
2022/04/21 02:15:33;;;;;;;13.83;7.67;;;;;;;0.81;62.93;93156.97;5050675;28;20044;-46
2022/04/21 02:18:04;;;;;;;17.42;7.63;;;;;;;0.68;63.25;93145.66;5051117;28;20053;-47
2022/04/21 02:20:31;;;;;;;13.98;7.93;;;;;;;0.62;63.44;93155.25;5050426;28;20051;-46
2022/04/21 02:22:58;;;;;;;13.68;7.40;;;;;;;0.64;63.32;93142.16;5049676;28;20725;-47
2022/04/21 02:25:24;;;;;;;13.13;6.85;;;;;;;0.68;63.28;93149.13;5050450;28;20044;-47
2022/04/21 02:27:51;;;;;;;13.13;7.30;;;;;;;0.70;63.22;93151.47;5050551;28;20040;-47
2022/04/21 02:30:19;;;;;;;14.55;7.00;;;;;;;0.65;63.01;93141.78;5052738;28;20056;-52
2022/04/21 02:32:46;;;;;;;14.48;7.03;;;;;;;0.48;63.59;93140.44;5070334;28;20056;-49
2022/04/21 02:35:15;;;;;;;13.45;7.22;;;;;;;0.54;63.18;93141.69;5069562;28;20531;-48
2022/04/21 02:37:46;;;;;;;13.13;7.13;;;;;;;0.58;63.68;93141.69;5070143;28;20059;-47
2022/04/21 02:40:14;;;;;;;15.33;7.17;;;;;;;0.57;63.79;93142.88;5069444;28;20044;-49
2022/04/21 02:42:42;;;;;;;13.60;7.03;;;;;;;0.51;63.91;93133.56;5070112;28;20493;-46
2022/04/21 02:45:09;;;;;;;14.25;6.90;;;;;;;0.50;63.64;93124.66;5070724;28;20044;-52
2022/04/21 02:47:38;;;;;;;14.10;7.28;;;;;;;0.39;64.46;93119.16;5070228;28;20046;-50
2022/04/21 02:50:06;;;;;;;14.75;7.63;;;;;;;0.43;64.46;93121.91;5070556;28;20049;-51
2022/04/21 02:52:40;;;;;;;14.57;7.40;;;;;;;0.08;65.05;93131.19;5070049;28;20044;-48
2022/04/21 02:57:53;;;;;;;13.82;8.02;;;;;;;0.20;64.94;93124.72;5069405;28;20188;-50
2022/04/21 03:00:20;;;;;;;15.48;7.53;;;;;;;0.27;64.58;93127.53;5069457;28;20045;-53
2022/04/21 03:02:47;;;;;;;15.68;7.70;;;;;;;-0.03;65.38;93122.19;5070102;28;20044;-49
2022/04/21 03:05:14;;;;;;;14.73;7.70;;;;;;;0.10;65.47;93120.78;5069308;28;20045;-52
2022/04/21 03:07:41;;;;;;;36.22;17.38;;;;;;;0.17;65.01;93114.69;5069755;28;20070;-44
2022/04/21 03:10:08;;;;;;;15.50;8.35;;;;;;;0.07;65.50;93116.13;5070286;28;20047;-45
2022/04/21 03:12:35;;;;;;;13.63;7.38;;;;;;;0.11;65.54;93116.16;5069700;28;20049;-49
2022/04/21 03:15:02;;;;;;;14.38;7.38;;;;;;;-0.16;65.19;93123.56;5070399;28;20052;-51
2022/04/21 03:17:29;;;;;;;17.23;7.40;;;;;;;-0.22;66.18;93110.41;5069837;28;20070;-46
2022/04/21 03:19:56;;;;;;;15.60;7.10;;;;;;;-0.15;65.90;93114.34;5068626;28;20053;-48
2022/04/21 03:25:10;;;;;;;13.95;7.40;;;;;;;-0.20;65.84;93126.22;5070178;28;20062;-47
2022/04/21 03:27:37;;;;;;;13.73;7.30;;;;;;;-0.12;65.50;93118.97;5069882;28;20571;-49
2022/04/21 03:30:06;;;;;;;15.03;7.67;;;;;;;-0.09;65.79;93121.72;5050562;28;20057;-47
2022/04/21 03:32:34;;;;;;;13.48;6.70;;;;;;;-0.08;65.29;93125.19;5049465;28;20045;-46
2022/04/21 03:35:01;;;;;;;15.10;7.60;;;;;;;-0.09;65.32;93119.03;5048810;28;20049;-50
2022/04/21 03:37:28;;;;;;;58.75;27.00;;;;;;;-0.05;65.26;93119.06;5047892;28;20051;-50
2022/04/21 03:39:54;;;;;;;28.80;14.38;;;;;;;-0.05;65.38;93117.16;5050104;28;20490;-49
2022/04/21 03:42:27;;;;;;;17.40;8.60;;;;;;;-0.06;65.52;93123.69;5052968;28;20064;-53
2022/04/21 03:44:55;;;;;;;17.63;7.93;;;;;;;-0.07;65.70;93119.44;5062134;28;20220;-49
2022/04/21 03:47:23;;;;;;;14.25;7.38;;;;;;;-0.02;65.31;93112.94;5081581;28;20052;-50
2022/04/21 03:49:50;;;;;;;16.75;8.25;;;;;;;-0.05;65.60;93108.28;5091687;28;20836;-44
2022/04/21 03:52:19;;;;;;;15.20;8.63;;;;;;;-0.05;65.25;93113.69;5094025;28;20547;-46
2022/04/21 03:54:46;;;;;;;12.93;7.40;;;;;;;-0.26;65.52;93106.13;5093504;28;20043;-46
2022/04/21 03:57:13;;;;;;;13.45;7.20;;;;;;;-0.24;65.41;93101.13;5092790;28;20044;-46
2022/04/21 03:59:40;;;;;;;13.85;8.13;;;;;;;-0.30;65.66;93105.28;5093299;28;20048;-46
2022/04/21 04:02:07;;;;;;;14.13;6.97;;;;;;;-0.28;65.84;93111.88;5093868;28;20044;-45
2022/04/21 04:04:36;;;;;;;15.10;7.53;;;;;;;-0.46;66.07;93117.03;5093260;28;20043;-46
2022/04/21 04:12:37;;;;;;;16.88;9.07;;;;;;;-0.31;66.01;93111.81;5093250;28;20131;-46
2022/04/21 04:15:06;;;;;;;20.65;10.98;;;;;;;-0.27;65.75;93108.03;5093572;28;20120;-51
2022/04/21 04:17:33;;;;;;;26.98;11.88;;;;;;;-0.27;65.99;93107.25;5092785;28;20054;-51
2022/04/21 04:20:00;;;;;;;22.03;10.93;;;;;;;-0.31;65.73;93117.22;5091950;28;20083;-49
2022/04/21 04:22:27;;;;;;;20.15;10.98;;;;;;;-0.30;66.35;93113.38;5092952;28;20050;-51
2022/04/21 04:24:56;;;;;;;21.08;10.50;;;;;;;-0.27;66.04;93109.94;5092023;28;20051;-48
2022/04/21 04:27:24;;;;;;;18.80;9.45;;;;;;;-0.23;66.30;93110.75;5092785;28;20065;-51
2022/04/21 04:29:51;;;;;;;19.20;8.93;;;;;;;-0.19;66.09;93108.88;5093038;28;20040;-50
2022/04/21 04:32:18;;;;;;;17.10;9.13;;;;;;;-0.18;66.32;93107.75;5093342;28;20046;-45
2022/04/21 04:34:45;;;;;;;14.68;7.55;;;;;;;-0.51;66.74;93120.03;5074870;28;20055;-45
2022/04/21 04:37:12;;;;;;;16.63;8.45;;;;;;;-0.66;67.90;93119.06;5093076;28;20047;-50
2022/04/21 04:39:39;;;;;;;15.93;7.88;;;;;;;-0.52;67.32;93115.81;5091458;28;20048;-47
2022/04/21 04:42:20;;;;;;;15.30;8.50;;;;;;;-0.37;67.15;93113.28;5093058;28;20048;-48
2022/04/21 04:44:49;;;;;;;13.90;7.77;;;;;;;-0.37;67.40;93122.16;5084769;28;20051;-46
2022/04/21 04:47:16;;;;;;;22.92;8.73;;;;;;;-0.35;67.27;93114.47;5080338;28;20436;-46
2022/04/21 04:49:43;;;;;;;16.90;9.05;;;;;;;-0.23;66.77;93114.22;5071806;28;20048;-46
2022/04/21 04:52:10;;;;;;;20.88;10.63;;;;;;;-0.15;66.09;93119.72;5072285;28;20520;-48
2022/04/21 04:54:36;;;;;;;27.25;11.32;;;;;;;-0.03;66.02;93114.09;5072120;28;20044;-45
2022/04/21 04:57:04;;;;;;;26.13;12.17;;;;;;;-0.03;66.24;93106.00;5072448;28;20055;-51
2022/04/21 04:59:31;;;;;;;25.52;11.52;;;;;;;0.07;66.09;93102.63;5072065;28;20045;-49
2022/04/21 05:01:58;;;;;;;31.13;15.27;;;;;;;0.19;65.60;93101.59;5087764;28;20606;-45
2022/04/21 05:04:25;;;;;;;31.70;13.50;;;;;;;0.05;65.84;93115.72;5087207;28;20063;-48
2022/04/21 05:06:57;;;;;;;25.50;13.23;;;;;;;0.04;65.60;93106.09;5074017;28;20105;-54
2022/04/21 05:09:25;;;;;;;24.27;12.43;;;;;;;-0.30;66.35;93110.66;5090949;28;20407;-48
2022/04/21 05:11:53;;;;;;;24.52;10.82;;;;;;;-0.22;66.50;93112.34;5074466;28;20044;-50
2022/04/21 05:14:21;;;;;;;18.30;10.40;;;;;;;-0.30;66.54;93102.56;5092460;28;20060;-46
2022/04/21 05:16:49;;;;;;;20.20;10.27;;;;;;;-0.38;66.52;93112.53;5090577;28;20042;-47
2022/04/21 05:19:21;;;;;;;21.75;10.88;;;;;;;-0.36;67.03;93112.13;5090687;28;20052;-48
2022/04/21 05:21:49;;;;;;;20.53;10.30;;;;;;;-0.22;67.32;93113.09;5091900;28;20039;-46
2022/04/21 05:24:16;;;;;;;19.67;10.55;;;;;;;-0.03;66.84;93106.00;5090926;28;20396;-47
2022/04/21 05:26:45;;;;;;;28.00;14.45;;;;;;;0.03;66.59;93106.44;5091892;28;20050;-49
2022/04/21 05:32:00;;;;;;;21.55;11.18;;;;;;;0.09;67.06;93103.03;5091383;28;20413;-45
2022/04/21 05:34:29;;;;;;;17.27;9.80;;;;;;;0.44;66.29;93101.84;5091596;28;20044;-47
2022/04/21 05:36:58;;;;;;;23.48;11.02;;;;;;;0.57;65.64;93099.66;5092004;28;20420;-45
2022/04/21 05:39:27;;;;;;;21.67;12.30;;;;;;;0.69;65.43;93095.91;5091638;28;20052;-45
2022/04/21 05:41:56;;;;;;;21.67;11.40;;;;;;;0.75;65.46;93108.69;5091842;28;20048;-46
2022/04/21 05:44:24;;;;;;;19.60;10.45;;;;;;;0.47;66.00;93101.13;5090032;28;20048;-49
2022/04/21 05:46:51;;;;;;;18.63;10.37;;;;;;;0.59;65.06;93102.78;5091827;28;20486;-45
2022/04/21 05:49:18;;;;;;;19.70;10.18;;;;;;;0.81;64.98;93098.34;5091847;28;20044;-45
2022/04/21 05:51:46;;;;;;;20.05;10.70;;;;;;;0.79;64.78;93095.22;5091234;28;20073;-48
2022/04/21 05:54:14;;;;;;;21.70;10.73;;;;;;;0.98;65.40;93086.88;5091722;28;20052;-52
2022/04/21 05:56:41;;;;;;;20.48;11.07;;;;;;;1.22;64.65;93086.66;5089715;28;20059;-49
2022/04/21 05:59:08;;;;;;;18.30;9.53;;;;;;;1.57;63.81;93078.75;5090368;28;20048;-52
2022/04/21 06:01:35;;;;;;;18.38;9.50;;;;;;;1.76;62.93;93077.66;5090892;28;20052;-47
2022/04/21 06:04:02;;;;;;;19.27;9.85;;;;;;;1.75;63.42;93072.63;5090756;28;20044;-48
2022/04/21 06:06:29;;;;;;;23.50;10.00;;;;;;;1.95;62.58;93073.09;5083446;28;20040;-46
2022/04/21 06:08:56;;;;;;;18.58;9.60;;;;;;;2.16;62.28;93069.69;5089084;28;20054;-45
2022/04/21 06:11:24;;;;;;;20.00;8.93;;;;;;;2.36;62.46;93070.13;5090985;28;20052;-44
2022/04/21 06:13:51;;;;;;;16.80;9.02;;;;;;;2.47;61.80;93070.13;5091114;28;20040;-52
2022/04/21 06:16:17;;;;;;;18.30;9.82;;;;;;;2.52;61.57;93067.84;5091324;28;20082;-50
2022/04/21 06:18:44;;;;;;;17.60;9.48;;;;;;;2.91;60.42;93063.59;5075800;28;20073;-49
2022/04/21 06:21:11;;;;;;;25.42;10.13;;;;;;;3.21;60.61;93063.19;5070901;28;20045;-47
2022/04/21 06:23:38;;;;;;;24.23;11.00;;;;;;;5.05;56.05;93066.59;5070155;28;20044;-46
2022/04/21 06:26:05;;;;;;;21.52;11.80;;;;;;;6.88;49.80;93055.56;5070837;28;20052;-49
2022/04/21 06:28:35;;;;;;;20.17;10.82;;;;;;;9.24;45.05;93052.94;5076861;28;20047;-54
2022/04/21 06:31:02;;;;;;;31.75;14.15;;;;;;;8.73;44.31;93058.81;5090791;28;20040;-47
2022/04/21 06:33:32;;;;;;;18.52;11.18;;;;;;;11.75;39.54;93054.00;5090486;28;20058;-48
2022/04/21 06:36:00;;;;;;;16.77;11.40;;;;;;;11.96;36.52;93047.03;5090736;28;20052;-48
2022/04/21 06:38:27;;;;;;;20.80;12.00;;;;;;;12.12;37.16;93050.84;5090185;28;20063;-51
2022/04/21 06:40:54;;;;;;;20.20;12.07;;;;;;;14.44;32.74;93042.91;5089336;28;20412;-50
2022/04/21 06:48:51;;;;;;;16.80;11.50;;;;;;;15.21;32.37;93046.59;5068492;28;21175;-44
2022/04/21 06:51:18;;;;;;;17.33;11.27;;;;;;;17.32;28.09;93044.19;5069875;28;20056;-45
2022/04/21 06:53:45;;;;;;;17.92;11.00;;;;;;;17.67;28.73;93035.13;5068912;28;20045;-47
2022/04/21 06:56:13;;;;;;;15.27;10.80;;;;;;;19.02;26.11;93043.56;5069552;28;20051;-45
2022/04/21 06:58:40;;;;;;;14.07;10.68;;;;;;;17.89;27.05;93045.06;5082935;28;20126;-48
2022/04/21 07:01:07;;;;;;;14.63;10.00;;;;;;;18.49;26.76;93040.75;5071239;28;20047;-50
2022/04/21 07:03:35;;;;;;;13.18;10.30;;;;;;;17.26;28.06;93045.34;5069311;28;20041;-45
2022/04/21 07:06:03;;;;;;;14.10;10.25;;;;;;;18.24;27.15;93036.66;5068473;28;20101;-46
2022/04/21 07:08:30;;;;;;;12.63;9.63;;;;;;;20.51;24.40;93037.16;5084498;28;20040;-49
2022/04/21 07:10:57;;;;;;;14.05;10.18;;;;;;;21.01;23.67;93035.81;5090440;28;20040;-48
2022/04/21 07:13:24;;;;;;;13.97;9.90;;;;;;;22.89;21.71;93028.03;5089549;28;20040;-49
2022/04/21 07:15:50;;;;;;;13.10;10.05;;;;;;;21.77;22.36;93037.56;5090408;28;20050;-53
2022/04/21 07:18:18;;;;;;;14.18;9.85;;;;;;;23.38;21.17;93026.72;5090363;28;20046;-47
2022/04/21 07:20:46;;;;;;;14.07;10.50;;;;;;;22.42;21.74;93028.03;5088400;28;20044;-51
2022/04/21 07:23:13;;;;;;;14.00;9.95;;;;;;;23.98;19.66;93021.13;5089936;28;20113;-47
2022/04/21 07:25:42;;;;;;;16.27;9.80;;;;;;;23.04;21.29;93030.53;5089933;28;20395;-46
2022/04/21 07:28:09;;;;;;;12.88;9.77;;;;;;;19.16;24.66;93026.75;5088814;28;20044;-46
2022/04/21 07:30:36;;;;;;;13.57;10.30;;;;;;;19.35;25.72;93029.16;5088308;28;20051;-45
2022/04/21 07:33:03;;;;;;;12.40;9.02;;;;;;;23.19;20.69;93018.97;5090141;28;20054;-49
2022/04/21 07:35:31;;;;;;;12.38;8.95;;;;;;;22.91;20.18;93021.94;5089408;28;20039;-51
2022/04/21 07:38:00;;;;;;;13.20;8.30;;;;;;;22.44;20.86;93022.69;5090049;28;20048;-47
2022/04/21 07:40:28;;;;;;;12.30;8.85;;;;;;;23.09;20.94;93029.72;5089590;28;20066;-47
2022/04/21 07:42:55;;;;;;;10.95;7.70;;;;;;;23.60;18.56;93023.75;5089917;28;20432;-48
2022/04/21 07:45:22;;;;;;;9.05;6.97;;;;;;;23.99;18.62;93019.09;5089849;28;20047;-49
2022/04/21 07:47:49;;;;;;;8.65;7.25;;;;;;;21.62;20.08;93029.47;5089146;28;20424;-47
2022/04/21 07:50:16;;;;;;;9.17;7.53;;;;;;;19.79;21.95;93027.22;5090087;28;20503;-47
2022/04/21 07:53:15;;;;;;;9.48;7.50;;;;;;;17.82;24.83;93023.97;5074472;28;20057;-46
2022/04/21 07:55:44;;;;;;;10.48;7.50;;;;;;;19.72;22.05;93020.09;5089461;28;20059;-46
2022/04/21 07:58:11;;;;;;;10.00;7.55;;;;;;;14.90;26.95;93026.28;5088574;28;20454;-48
2022/04/21 08:00:38;;;;;;;10.05;7.30;;;;;;;19.93;21.71;93021.47;5089679;28;20048;-46
2022/04/21 08:03:10;;;;;;;11.43;7.47;;;;;;;14.88;27.54;93025.97;5090088;28;20054;-52
2022/04/21 08:05:37;;;;;;;9.48;6.95;;;;;;;20.38;21.66;93014.56;5088097;28;20050;-48
2022/04/21 08:08:04;;;;;;;8.52;6.40;;;;;;;23.09;18.49;93009.38;5078032;28;20041;-49
2022/04/21 08:10:31;;;;;;;12.02;6.82;;;;;;;20.01;21.33;93007.09;5051373;28;20045;-46
2022/04/21 08:12:59;;;;;;;8.35;6.65;;;;;;;16.96;25.16;93023.19;5069650;28;20045;-49
2022/04/21 08:15:32;;;;;;;8.53;6.50;;;;;;;19.01;22.23;93008.66;5065364;28;20079;-50
2022/04/21 08:18:07;;;;;;;10.57;7.30;;;;;;;17.22;24.33;93020.59;5068216;28;20154;-48
2022/04/21 08:20:34;;;;;;;11.85;6.90;;;;;;;18.79;22.60;93014.75;5068763;28;20450;-49
2022/04/21 08:23:04;;;;;;;8.73;6.75;;;;;;;20.43;20.74;93011.03;5067944;28;20044;-46
2022/04/21 08:34:27;;;;;;;8.60;6.40;;;;;;;21.58;18.65;93017.06;5072748;28;20125;-50
2022/04/21 08:36:54;;;;;;;8.15;6.28;;;;;;;19.81;19.75;93019.88;5073115;28;20051;-49
2022/04/21 08:39:23;;;;;;;8.60;6.28;;;;;;;21.13;19.19;93021.34;5071402;28;20050;-53
2022/04/21 08:41:53;;;;;;;8.87;6.20;;;;;;;20.19;20.26;93017.78;5071967;28;20597;-51
2022/04/21 08:44:21;;;;;;;8.57;6.30;;;;;;;21.52;18.87;93019.84;5072731;28;20044;-51
2022/04/21 08:46:48;;;;;;;8.27;6.38;;;;;;;20.71;19.45;93022.31;5072455;28;20044;-53
2022/04/21 08:49:19;;;;;;;9.95;6.32;;;;;;;20.71;20.10;93022.31;5072838;28;20244;-50
2022/04/21 08:51:46;;;;;;;8.30;6.35;;;;;;;20.28;20.57;93011.22;5072646;28;20040;-49
2022/04/21 08:54:13;;;;;;;8.23;6.50;;;;;;;18.09;23.56;93024.84;5071421;28;20055;-45
2022/04/21 08:56:40;;;;;;;9.20;6.45;;;;;;;20.34;20.58;93023.94;5072355;28;20053;-50
2022/04/21 08:59:07;;;;;;;9.23;6.55;;;;;;;20.15;20.49;93014.47;5054877;28;20057;-48
2022/04/21 09:01:34;;;;;;;9.63;6.60;;;;;;;18.42;21.60;93020.94;5071939;28;20049;-50
2022/04/21 09:04:01;;;;;;;8.45;6.50;;;;;;;18.07;23.43;93024.56;5072567;28;20049;-48
2022/04/21 09:06:29;;;;;;;9.47;7.10;;;;;;;18.27;22.98;93009.91;5070637;28;20052;-52
2022/04/21 09:09:17;;;;;;;8.55;6.43;;;;;;;19.39;21.66;93004.66;5072353;28;20040;-48
2022/04/21 09:11:45;;;;;;;9.32;6.95;;;;;;;16.36;25.71;93011.31;5070517;28;20047;-50
2022/04/21 09:14:16;;;;;;;8.88;6.22;;;;;;;18.90;23.37;93001.75;5068801;28;20045;-46
2022/04/21 09:16:48;;;;;;;8.82;6.43;;;;;;;19.36;23.02;92998.06;5063365;28;20059;-47
2022/04/21 09:19:15;;;;;;;10.90;7.10;;;;;;;16.64;25.61;93022.91;5052095;28;20045;-49
2022/04/21 09:21:42;;;;;;;8.48;6.68;;;;;;;18.21;23.13;93001.53;5051665;28;20057;-50
2022/04/21 09:24:25;;;;;;;8.20;6.20;;;;;;;21.12;20.38;93008.66;5052069;28;20041;-47
2022/04/21 09:26:56;;;;;;;7.93;5.85;;;;;;;22.23;19.20;92990.72;5051097;28;20056;-49
2022/04/21 09:29:30;;;;;;;9.23;6.43;;;;;;;19.74;21.66;92998.09;5065377;28;20040;-49
2022/04/21 09:32:03;;;;;;;10.13;6.17;;;;;;;20.33;21.50;93000.13;5071149;28;20045;-50
2022/04/21 09:34:36;;;;;;;8.82;7.00;;;;;;;16.94;24.91;93003.50;5071381;28;20041;-50
2022/04/21 09:37:05;;;;;;;8.43;6.90;;;;;;;19.82;22.25;92987.22;5070656;28;20051;-48
2022/04/21 09:39:40;;;;;;;8.18;6.15;;;;;;;21.09;20.72;92992.19;5071569;28;20049;-48
2022/04/21 09:42:08;;;;;;;8.43;6.20;;;;;;;20.92;21.13;92981.75;5071742;28;20056;-47
2022/04/21 09:47:28;;;;;;;7.78;5.80;;;;;;;20.68;21.03;92978.69;5071960;28;20053;-47
2022/04/21 09:49:57;;;;;;;8.07;6.15;;;;;;;20.34;21.59;92982.16;5070468;28;20063;-50
2022/04/21 09:52:28;;;;;;;8.52;6.20;;;;;;;18.12;23.85;92977.44;5070979;28;20049;-48
2022/04/21 09:54:55;;;;;;;10.68;5.93;;;;;;;21.01;22.14;92975.19;5071553;28;20413;-46
2022/04/21 09:57:30;;;;;;;8.60;5.70;;;;;;;21.21;21.80;92976.19;5071706;28;20509;-51
2022/04/21 09:59:58;;;;;;;9.20;5.55;;;;;;;20.11;21.62;92958.25;5070378;28;20057;-47
2022/04/21 10:02:29;;;;;;;8.73;6.38;;;;;;;17.84;24.58;92968.03;5070983;28;20063;-49
2022/04/21 10:04:57;;;;;;;6.55;5.20;;;;;;;24.34;18.50;92948.09;5071011;28;20085;-46
2022/04/21 10:07:24;;;;;;;7.43;5.55;;;;;;;26.15;16.29;92951.63;5069569;28;20084;-49
2022/04/21 10:09:51;;;;;;;7.20;5.80;;;;;;;19.80;22.40;92946.00;5071002;28;20032;-47
2022/04/21 10:12:18;;;;;;;9.52;5.50;;;;;;;21.53;21.52;92951.56;5069839;28;20040;-52
2022/04/21 10:14:47;;;;;;;7.13;4.78;;;;;;;24.59;18.63;92929.19;5062934;28;20045;-49
2022/04/21 10:17:14;;;;;;;7.35;5.80;;;;;;;22.07;19.78;92933.63;5058308;28;20044;-49
2022/04/21 10:19:40;;;;;;;7.05;5.40;;;;;;;21.09;20.92;92934.34;5070268;28;20048;-45
2022/04/21 10:22:14;;;;;;;7.73;5.83;;;;;;;20.38;22.02;92933.75;5071052;28;20416;-48
2022/04/21 10:24:43;;;;;;;9.73;5.78;;;;;;;20.66;22.07;92926.22;5069189;28;20048;-49
2022/04/21 10:27:40;;;;;;;8.88;5.88;;;;;;;23.11;19.82;92923.63;5070652;28;20049;-51
2022/04/21 10:30:11;;;;;;;7.35;5.50;;;;;;;24.82;18.05;92914.81;5069677;28;20843;-54
2022/04/21 10:32:45;;;;;;;7.63;5.80;;;;;;;22.97;20.38;92921.19;5068915;28;20056;-48
2022/04/21 10:35:24;;;;;;;6.90;6.07;;;;;;;20.71;21.82;92919.16;5070480;28;20062;-50
2022/04/21 10:38:12;;;;;;;7.18;6.05;;;;;;;21.34;21.64;92923.41;5070105;28;20041;-50
2022/04/21 10:41:02;;;;;;;7.10;5.90;;;;;;;21.70;20.97;92912.44;5070392;28;20056;-50
2022/04/21 10:43:48;;;;;;;6.25;5.03;;;;;;;24.99;18.49;92904.09;5070330;28;20059;-50
2022/04/21 10:46:20;;;;;;;6.50;5.00;;;;;;;23.82;18.80;92904.38;5069327;28;20045;-51
2022/04/21 10:48:49;;;;;;;6.37;4.97;;;;;;;20.08;22.37;92895.19;5069837;28;20044;-49
2022/04/21 10:57:35;;;;;;;8.20;5.68;;;;;;;19.07;25.54;92889.91;5069888;28;20535;-47
2022/04/21 11:00:04;;;;;;;7.97;5.88;;;;;;;19.18;24.65;92883.66;5070283;28;20040;-46
2022/04/21 11:02:38;;;;;;;8.07;5.47;;;;;;;19.61;24.06;92884.38;5068442;28;20157;-47
2022/04/21 11:05:27;;;;;;;7.78;6.00;;;;;;;18.49;25.45;92882.38;5070142;28;20045;-49
2022/04/21 11:07:59;;;;;;;8.60;6.47;;;;;;;17.33;26.84;92884.13;5069350;28;21778;-49
2022/04/21 11:10:38;;;;;;;8.63;5.90;;;;;;;17.76;26.62;92878.84;5070174;28;20113;-49
2022/04/21 11:13:06;;;;;;;8.40;6.40;;;;;;;16.23;28.36;92873.16;5070297;28;20129;-47
2022/04/21 11:15:53;;;;;;;10.23;6.27;;;;;;;15.90;29.80;92871.34;5061738;28;20059;-45
2022/04/21 11:18:27;;;;;;;12.32;6.60;;;;;;;16.41;29.08;92863.88;5050316;28;20074;-48
2022/04/21 11:21:20;;;;;;;12.15;7.05;;;;;;;14.71;31.25;92856.34;5048822;28;20433;-47
2022/04/21 11:23:47;;;;;;;9.20;6.13;;;;;;;16.52;28.95;92863.28;5049299;28;20045;-47
2022/04/21 11:26:13;;;;;;;9.70;6.25;;;;;;;15.51;31.38;92865.03;5050072;28;20071;-45
2022/04/21 11:28:45;;;;;;;8.73;5.83;;;;;;;15.65;30.32;92877.34;5057453;28;20074;-51
2022/04/21 11:31:13;;;;;;;8.57;6.05;;;;;;;15.49;31.09;92861.97;5070250;28;20059;-52
2022/04/21 11:33:44;;;;;;;9.52;6.30;;;;;;;16.19;29.99;92864.28;5069598;28;20066;-49
2022/04/21 11:36:13;;;;;;;10.60;6.57;;;;;;;16.96;28.89;92854.91;5070163;28;20045;-49
2022/04/21 11:38:49;;;;;;;10.88;8.00;;;;;;;16.39;29.44;92866.38;5069488;28;20061;-51
2022/04/21 11:41:16;;;;;;;9.87;7.00;;;;;;;16.16;29.91;92859.72;5070137;28;20052;-51
2022/04/21 11:43:47;;;;;;;9.90;6.82;;;;;;;16.09;30.10;92860.06;5069355;28;20425;-49
2022/04/21 11:46:14;;;;;;;11.40;7.32;;;;;;;16.57;29.80;92851.53;5068609;28;20051;-52
2022/04/21 11:48:42;;;;;;;10.13;6.50;;;;;;;17.48;28.91;92845.97;5069154;28;20045;-50
2022/04/21 11:51:10;;;;;;;10.07;6.65;;;;;;;17.01;29.96;92847.16;5069724;28;20047;-51
2022/04/21 11:53:42;;;;;;;12.07;7.20;;;;;;;16.65;29.77;92838.06;5069428;28;20047;-50
2022/04/21 11:56:11;;;;;;;9.80;6.70;;;;;;;17.19;29.00;92835.81;5070000;28;20043;-47
2022/04/21 11:58:40;;;;;;;9.50;6.30;;;;;;;16.09;30.36;92841.47;5069253;28;20041;-48
2022/04/21 12:06:55;;;;;;;10.33;5.60;;;;;;;16.03;29.88;92831.53;5072573;28;20818;-48
2022/04/21 12:09:26;;;;;;;10.80;5.38;;;;;;;16.47;29.62;92830.75;5073719;28;20044;-52
2022/04/21 12:11:58;;;;;;;9.30;5.72;;;;;;;16.22;29.72;92824.56;5072396;28;20697;-51
2022/04/21 12:14:26;;;;;;;9.48;5.65;;;;;;;16.33;29.93;92824.75;5072737;28;20048;-45
2022/04/21 12:16:55;;;;;;;8.57;6.32;;;;;;;15.54;30.71;92828.13;5073257;28;20453;-48
2022/04/21 12:19:39;;;;;;;8.30;6.10;;;;;;;14.67;32.51;92842.72;5073133;28;20048;-48
2022/04/21 12:22:16;;;;;;;9.07;6.13;;;;;;;15.40;31.42;92832.41;5077084;28;20055;-49
2022/04/21 12:24:47;;;;;;;10.27;6.13;;;;;;;16.52;29.84;92830.84;5071440;28;20105;-48
2022/04/21 12:27:20;;;;;;;9.95;6.35;;;;;;;16.08;29.86;92833.66;5073475;28;20055;-49
2022/04/21 12:29:54;;;;;;;11.00;6.55;;;;;;;15.77;32.17;92830.13;5072646;28;20051;-53